Timeline UpdatesTrip UpdatesNews PostsPvt PostsTravel TipsAdmin PostsConv PostsFollowed PostsChat RequestsBlog PostsPNR Posts

Disclaimer
Search
 
 
Fri Apr 18, 2014 11:03:01 ISTHomeTrainsΣChainsAtlasPNRForumGalleryNewsFAQTripsMembersLoginFeedback
No Recent News for this Train
Other Trains in the News **new
Latest...
.
Sat Feb 22, 2014 (10:28PM)
⇐ Return Journey: Train# 58111

58112/Itwari-Tatanagar Jn Passenger

Feb 22 2014 (10:27PM)
Change Departure Station:
Change Arrival Station:
Post a Train Travel TipPost a Train Travel Tip **new
Post a Comment/Question/Picture/VideoPost a Comment/Question/Picture/Video
Pantry/Catering
✕ NO Pantry Car
✕ NO Catering
RSA - Rake Sharing
Rake/Coach Composition
ENG:SLR-1 UR-3 SL-4 UR-3 VP-1 SLR-1; Entry# 189608 ; Author: sunilsagitarius
Loco
WAM-4 TATA Shed; Entry# 545455
News    PNR    Forum    Time-Table    Availability    Fare Chart    Map    Arr/Dep History    Trips    Gallery    ΣChains    X/O    Timeline    
Travel Time: 26h 35m    106 halts    Distance: 877 km    Avg Speed: 32 km/hr
Type: Passenger
Zone: SER/South Eastern
Departs @ 21:30 (Avg 11m late)
Platform# ???
SMTWTFS
Itwari/ITR 
Arrives @ 00:05 +2 nights (Avg 16m late)
Platform# 4
SMTWTFS
Tatanagar Junction/TATA 

106 halts. 117 intermediate Stations between Itwari and Tatanagar Junction

Show ALL intermediate Stations  Show Old Time-Table

#CodeStation NameX/OArrivesAvgDepartsAvgHaltPFDay#KmSpeedElevZoneAddress
1ITR»Itwari (3)»  -21:30+11--10.021306mSECRNagpur, Maharashtra
2KAVKalamna (2)  21:38+1521:40+182m--12.846296mSECRNagpur, Maharashtra
3KPKamptee (3)X  21:50+1821:52+202m--110.528290mSECRMH 441001, Maharashtra
4KNHNKanhan Junction (3)  22:02+1922:04+202m--115.286288mSECRKanhan, Maharashtra
5SALSalwa (2)X  22:08+2422:10+252m--121.066289mSECRNagpur, Maharashtra
6CHCRChacher (2)O  22:16+2722:18+292m--127.563284mSECRNagpur, Maharashtra
7TARTharsa (2)  22:24+3022:26+312m--133.868292mSECRNagpur, Maharashtra
8RRLRewral (2)X  22:31+3222:33+312m--139.577293mSECRNagpur Distt, Maharashtra
9KHATKhat (2)  22:40+3222:42+342m--148.554286mSECRNagpur, Maharashtra
10BRDBhandara Road (2)X  22:53+2922:55+322m--158.454266mSECRState Highway 252, Maharashtra
11TMRTumsar Road (3)O  23:15+3023:20+285m--176.488267mSECRBhandara, Maharashtra
12MNUMundikota (2)  23:27+3423:29+352m--186.767269mSECRBhandara, Maharashtra
13TROTirora (3)  23:38+3623:40+382m--196.768282mSECRDist Gondiya, Maharashtra
14KWNKachewani (3)  23:46+3923:48+392m--1103.672303mSECRKachewani, Maharashtra
15GJGangajhari (2)  23:55+3923:57+392m--1111.930315mSECRBhandara, Maharashtra
16GGondia Junction (7)  00:25+2400:35+2810m--2126.089316mSECRGondia 441601, Maharashtra
17GDMGudma (2)  00:43+3400:45+342m--2137.973323mSECRGondia, Maharashtra
18AGNAmgaon (2)  00:54+3300:56+332m--2148.880317mSECRGondia, Maharashtra
19SKSSalekasa (2)  01:07+3901:09+402m--2163.653312mSECRRajnandgaon, Chhattisgarh
20DKSDarekasa (2)  01:22+3901:24+392m--2175.166381mSECRRajnandgaon, Chhattisgarh
21BTLBortalao (2)X  01:31+4001:33+412m--2182.853409mSECRRajnandgaon, Chhattisgarh
22PJBPaniajob (2)  01:43+4601:45+462m--2191.631398mSECRRajnandgaon, Chhattisgarh
23DGGDongargarh (2)X  02:00+4102:10+4110m--2199.398353mSECRDongargarh, Chhattisgarh
24JTRJatkanharX  02:14+4302:16+432m--2205.866330mSECRRajnandgaon, Chhattisgarh
25MUAMusra  02:22+4302:24+432m--2212.569325mSECRRajnandgaon, Chhattisgarh
26RJNRaj Nandgaon (3)  02:40+4202:45+425m--2230.8100313mSECRRajnandgaon, Chhattisgarh
27MUPMurhipar  02:54+3302:56+332m--2245.816319mSECRRajnandgaon, Chhattisgarh
28DURGDurg Junction (6)X  03:55+604:00+85m--2261.345299mSECRPh: 91-788-2322059, Chhattisgarh
29BQRBhilai Nagar (2)  04:06+1104:07+111m--2265.866298mSECRBhilai, Chhattisgarh
30BPHBBhilai Power House (3)  04:11+1304:13+132m--2270.256312mSECRBhilai, Chhattisgarh
31BIABhilai  04:18+1304:20+132m--2274.952309mSECRBhilai, Chhattisgarh
32DBECDevbaloda CharodaX  04:24+1504:26+152m--2278.323310mSECRBhilai, Chhattisgarh
33KMIKumhariX  04:46+1304:48+132m--2285.851287mSECRKumhari, Chhattisgarh
34SRWNSaraswatinagar  05:00+1105:01+111m--2296.010291mSECRRaipur, Chhattisgarh
35RRaipur Junction (6)X  05:15+905:35+1220m--2298.252297mSECRRaipur, Chhattisgarh
36WRCWRS Colony PH  05:38+1605:40+162m--2300.830286mSECRRaipur, Chhattisgarh
37URKUrkura  05:46+1605:48+162m--2303.973275mSECRRaipur, Chhattisgarh
38MDHMandharX  05:55+1805:56+191m--2312.464281mSECRDonde Kalan, Chhattisgarh
39SLHSiliariX  06:05+2206:06+241m--2322.056280mSECRBanjari Rd, Chhattisgarh
40BKTHBaikunthX  06:15+2506:17+242m--2330.346287mSECRBanjari Rd, Chhattisgarh
41TLDTilda (3)X  06:25+2306:27+232m--2336.480291mSECRBanjari Rd, Chhattisgarh
42HNHathbandhX  06:35+2506:37+252m--2347.184283mSECRRaipur, Chhattisgarh
43BYTBhatapara (4)X  06:48+2606:50+282m--2362.559270mSECRBanjari Road, Chhattisgarh
44NPINipania  07:05+2607:06+271m--2377.255259mSECRNational Highway 200, Chhattisgarh
45DGSDagoriX  07:15+2707:16+281m--2385.592254mSECRCollege Road, Chhattisgarh
46BYLBelha  07:21+2807:23+282m--2393.170269mSECRCollege Road, Chhattisgarh
47CHBTChakarbhathaX  07:28+3407:30+342m--2399.037285mSECRBilaspur, Chhattisgarh
48DPHDadhaparaXO  07:35+3207:37+332m--2402.08272mSECRBilaspur, Chhattisgarh
49BSPBilaspur Junction (8)X  08:25+1108:40+1715m22408.748271mSECRBilaspur, Chhattisgarh
50GTWGatoraX  08:48+1908:50+192m--2415.157268mSECRBilaspur, Chhattisgarh
51JRMGJairamnagarX  08:58+1909:00+202m--2422.867272mSECRNational Highway 200, Chhattisgarh
52KTSHKotmi Sonar HaltX  09:06+2309:08+232m--2429.564266mSECRKotmisunar, Chhattisgarh
53AKTAkaltara (4)X  09:14+2309:16+242m--2435.966284mSECRDist. Janjgir Champa, Chhattisgarh
54KPNAKapan (1)XO  09:23+2609:25+262m12443.648263mSECRNational Highway 200, Chhattisgarh
55NIANailaX  09:34+2609:36+282m--2450.834273mSECRJanjgir, Chhattisgarh
56CPHChampa Junction (3)X  09:55+2310:00+285m--2461.777264mSECRNational Highway 200 (07819-245767), Chhattisgarh
57SGRDSaragaon Road  10:07+3410:08+341m--2470.698254mSECRNational Highway 200, Chhattisgarh
58BUABaradwarX  10:12+3410:14+352m--2477.261256mSECRJanjgir-Champa, Chhattisgarh
59JDDAJetha  10:21+3610:22+361m--2484.378244mSECRNational Highway 200, Chhattisgarh
60SKTSakti (4)  10:28+3610:30+392m--2492.156237mSECRJanjgir-Champa, Chhattisgarh
61JDIJharradih  10:41+3810:43+422m--2502.263247mSECRRaigarh, Chhattisgarh
62KHSKharsia  10:48+4310:50+442m--2507.573259mSECRNational Highway 200, Chhattisgarh
63ROBRobertson  10:57+4510:59+452m--2516.068239mSECRRaigarh, Chhattisgarh
64BEFBhupdeopur  11:07+4711:09+492m--2525.079243mSECRRaigarh, Chhattisgarh
65KDTRKirodimalnagarO  11:16+5311:18+552m--2534.225240mSECRRaigarh, Chhattisgarh
66RIGRaigarh (3)  11:35+5111:40+555m--2541.497220mSECRRaigarh, Chhattisgarh
67KRLKotarlia  11:46+1:0111:48+1:022m--2551.273229mSECRRaigarh, Chhattisgarh
68JMGJamga  11:55+1:0311:57+1:112m--2559.765233mSECRJamga Station, Chhattisgarh
69DAODaghoraX  12:08+1:1012:10+1:092m--2571.634269mSECRRaigarh, Chhattisgarh
70HGRHimgir  12:23+1:0512:25+1:072m--2579.081275mSECRNational Highway 200, Chhattisgarh
71BPHBelpahar  12:35+1:0912:37+1:132m--2592.525235mSECRBelpahar, Odisha
72BRJNBrajrajnagarO  12:58+1:1013:00+1:102m--2601.46212mSECRBrajrajnagar, Odisha
73IBIbXO  13:28+4813:30+502m--2604.18207mSECRJharsuguda, Odisha
74JSGJharsuguda Junction (5)X  14:35+1314:55+2420m--2613.157236mSERJharsuguda, Odisha
75DTVDhutra  15:04+2715:05+291m--2621.747240mSERJharsuguda, Odisha
76PNPLPanpaliX  15:12+2815:13+281m--2627.156258mSERJharsuguda, Odisha
77BEHBagdihi (3)O  15:20+2815:21+321m--2633.754254mSERState Highway 24 PH: 06640-286227, Odisha
78DIHDharuadihi  15:28+3215:29+351m--2640.064258mSERSH 24, Odisha
79BMBBamra (3)  15:38+3615:39+391m--2649.656259mSERBamra PH : 06642-229268, Odisha
80TGMTangarmundaX  15:48+3915:49+401m--2658.058264mSERSundargarh, Odisha
81GPHGarpos (3)O  15:57+4015:58+431m--2665.847278mSERSundargarh, Odisha
82SOGRSogra  16:04+4316:05+441m--2670.555293mSERState Highway 10, Odisha
83SXNSonakhan  16:12+4416:13+451m--2676.955249mSERSundargarh, Odisha
84GPRaj Gangpur (3)  16:21+4516:22+471m--2684.255237mSERRaj Ganpur, Odisha
85KXNKanshbahal  16:32+4716:33+511m--2693.453220mSERSundargarh, Odisha
86KLGKalunga  16:41+5316:42+571m--2700.550203mSERSundargarh, Odisha
87PPOPanposh (2)X  16:51+5916:52+1:011m--2708.08190mSERRourkela, Odisha
88ROURourkela Junction (5)X  17:40+2818:40+4560m42714.030198mSERRourkela, Odisha
89BNDMBondamunda (3)  18:53+5318:54+531m--2720.541213mSERRourkela, Odisha
90BZRBisra  19:05+5319:06+541m--2728.158224mSERSundargarh, Odisha
91BULBhalulata  19:13+5419:14+551m--2734.950239mSERRourkela, Jharkhand
92JRAJaraikelaX  19:23+5519:24+561m--2742.468215mSERJaraikela Station, Jharkhand
93MOUManoharpurX  19:34+1:0019:35+1:071m--2753.839228mSERManoharpur, Jharkhand
94PSTPosotiaX  19:52+1:0319:53+1:081m--2764.851279mSERPosotia Station, Jharkhand
95DRWNDerowan P. Halt  20:01+1:1020:02+1:101m--2771.636275mSERDerowan, Jharkhand
96GOLGoilkera  20:18+1:1020:19+1:111m--2781.351333mSERGoilkera, Jharkhand
97TUXTunia  20:27+1:1020:28+1:101m--2788.145297mSERTunia Station, Jharkhand
98SWRSonua  20:36+1:0820:37+1:091m--2794.169287mSERSonua, Jharkhand
99LPHLotapaharX  20:47+1:0820:48+1:111m--2805.526251mSERLotapahar Station, Jharkhand
100CKPChakradharpur (3)X  21:10+1:0421:50+4740m--2815.164235mSERChakradharpur (West Singhbhum), Jharkhand
101BRMBarabamboX  22:00+4522:01+461m--2825.756213mSERBarabambo Station, Jharkhand
102RKSNRajkharsawan Junction  22:11+4222:12+431m--2835.150189mSERWest Singhbhum district, Jharkhand
103MMVMahali Marup  22:21+4022:22+411m--2842.651183mSERMahali Marup Station, Jharkhand
104SINISini Junction  22:31+3822:32+381m22850.348182mSERNational Highway 33, Jharkhand
105BRBSBirbans  22:41+3822:42+381m--2857.654171mSERBirbans, Jharkhand
106GMHGamharia (3)X  22:52+3322:53+351m22866.640165mSERJamshedpur, Jharkhand
107ADTPAdityapur (3)  23:02+2023:03+181m22872.75152mSERJamshedpur, Jharkhand
108TATA•Tatanagar Junction (5)•  00:05+16-43877.3-164mSER91-657-2423026, Jharkhand
Scroll to Top
Scroll to Bottom